Chapada Diamantina, Brazil
Current Conditions -  °F | °C
As of 11:45 PM on Sunday 19 Oct 2014 (Local Time) from SBQV Reporting Station
Clear Clear  
Wind Chill: 70°   Ceiling: Unl
Heat Index: 70°   Visibility: 6mi
Dew Point: 64°   Wind: 8mph
Humidity: 83%   Direction: 80°E
Pressure: 30.06"   Gusts: NA
Location:  12.48°S, 41.28°W
Report Text: SBQV 200245Z 08007KT CAVOK 21/18 Q1018
Loading
Personal Weather Stations






























Interactive Weather Map
Tropical Storm Tracking
New forecast layout! Learn more

10-Day Weather Forecast

Advertisements
Track Severe Weather on mobile